createdAt,value
2022-12-19T00:02:44.183Z,62.77
2022-12-19T00:05:51.902Z,62.51
2022-12-19T00:09:00.536Z,61.90
2022-12-19T00:12:07.408Z,62.46
2022-12-19T00:15:16.780Z,62.52
2022-12-19T00:18:23.530Z,62.81
2022-12-19T00:21:34.049Z,61.70
2022-12-19T00:24:42.264Z,62.04
2022-12-19T00:27:47.777Z,61.45
2022-12-19T00:30:56.749Z,62.00
2022-12-19T00:34:02.794Z,61.74
2022-12-19T00:37:08.997Z,61.45
2022-12-19T00:40:15.438Z,60.26
2022-12-19T00:43:21.883Z,60.13
2022-12-19T00:46:32.952Z,60.38
2022-12-19T00:49:39.476Z,60.60
2022-12-19T00:52:47.755Z,60.35
2022-12-19T00:55:53.943Z,59.87
2022-12-19T00:59:00.328Z,60.35
2022-12-19T01:02:10.184Z,60.70
2022-12-19T01:05:16.540Z,59.78
2022-12-19T01:08:23.166Z,60.52
2022-12-19T01:11:41.548Z,60.46
2022-12-19T01:14:48.397Z,60.50
2022-12-19T01:17:56.723Z,59.62
2022-12-19T01:21:09.595Z,60.38
2022-12-19T01:24:18.895Z,60.12
2022-12-19T01:27:28.731Z,60.73
2022-12-19T01:30:34.364Z,59.88
2022-12-19T01:33:47.299Z,60.08
2022-12-19T01:36:55.663Z,59.93
2022-12-19T01:40:01.873Z,59.41
2022-12-19T01:43:08.494Z,60.29
2022-12-19T01:46:18.868Z,60.06
2022-12-19T01:49:36.932Z,59.86
2022-12-19T01:52:43.590Z,60.25
2022-12-19T01:55:49.012Z,60.15
2022-12-19T01:59:06.638Z,60.07
2022-12-19T02:02:24.870Z,59.97
2022-12-19T02:05:36.364Z,60.18
2022-12-19T02:08:47.570Z,60.44
2022-12-19T02:11:54.767Z,59.39
2022-12-19T02:15:03.709Z,59.68
2022-12-19T02:18:27.231Z,59.04
2022-12-19T02:21:58.443Z,59.10
2022-12-19T02:25:39.809Z,59.22
2022-12-19T02:29:17.802Z,58.97
2022-12-19T02:32:38.752Z,58.92
2022-12-19T02:35:54.622Z,59.48
2022-12-19T02:39:11.132Z,59.51
2022-12-19T02:42:28.836Z,59.13
2022-12-19T02:45:44.035Z,60.02
2022-12-19T02:48:53.949Z,60.21
2022-12-19T02:52:00.377Z,59.95
2022-12-19T02:55:14.191Z,60.49
2022-12-19T02:58:47.703Z,60.05
2022-12-19T03:02:04.313Z,60.27
2022-12-19T03:05:28.102Z,60.29
2022-12-19T03:08:56.478Z,60.60
2022-12-19T03:12:17.381Z,60.41
2022-12-19T03:15:26.935Z,59.97
2022-12-19T03:18:36.498Z,59.97
2022-12-19T03:21:50.754Z,59.92
2022-12-19T03:24:56.616Z,60.20
2022-12-19T03:28:14.119Z,60.15
2022-12-19T03:31:27.655Z,59.98
2022-12-19T03:34:44.071Z,59.48
2022-12-19T03:38:01.205Z,59.21
2022-12-19T03:41:14.897Z,59.08
2022-12-19T03:44:24.228Z,59.37
2022-12-19T03:47:40.320Z,59.44
2022-12-19T03:51:02.078Z,58.24
2022-12-19T03:54:20.276Z,59.03
2022-12-19T03:57:39.251Z,59.14
2022-12-19T04:00:50.535Z,59.18
2022-12-19T04:03:56.121Z,58.72
2022-12-19T04:07:06.577Z,59.15
2022-12-19T04:10:22.300Z,58.16
2022-12-19T04:13:47.531Z,58.16
2022-12-19T04:17:04.817Z,58.55
2022-12-19T04:20:15.893Z,58.60
2022-12-19T04:23:32.015Z,58.85
2022-12-19T04:26:48.220Z,58.52
2022-12-19T04:30:01.574Z,58.23
2022-12-19T04:33:08.484Z,58.30
2022-12-19T04:36:15.037Z,58.37
2022-12-19T04:39:21.476Z,58.68
2022-12-19T04:42:30.203Z,58.82
2022-12-19T04:45:36.706Z,58.29
2022-12-19T04:48:42.864Z,58.31
2022-12-19T04:51:49.497Z,59.02
2022-12-19T04:54:54.892Z,58.81
2022-12-19T04:58:08.506Z,58.72
2022-12-19T05:01:14.471Z,58.78
2022-12-19T05:04:20.962Z,59.33
2022-12-19T05:07:26.488Z,58.79
2022-12-19T05:10:32.898Z,59.00
2022-12-19T05:13:41.195Z,58.27
2022-12-19T05:16:47.442Z,58.83
2022-12-19T05:19:53.074Z,58.87
2022-12-19T05:23:03.488Z,59.59
2022-12-19T05:26:11.274Z,58.58
2022-12-19T05:29:20.692Z,58.81
2022-12-19T05:32:26.055Z,58.62
2022-12-19T05:35:32.308Z,58.94
2022-12-19T05:38:38.976Z,59.20
2022-12-19T05:41:48.970Z,59.14
2022-12-19T05:44:58.125Z,58.62
2022-12-19T05:48:04.373Z,59.00
2022-12-19T05:51:09.798Z,58.39
2022-12-19T05:54:16.512Z,58.73
2022-12-19T05:57:21.895Z,58.43
2022-12-19T06:00:30.979Z,58.51
2022-12-19T06:03:36.547Z,58.78
2022-12-19T06:06:42.808Z,59.11
2022-12-19T06:09:48.208Z,59.84
2022-12-19T06:12:54.455Z,60.03
2022-12-19T06:16:06.588Z,59.82
2022-12-19T06:19:12.878Z,59.79
2022-12-19T06:22:18.643Z,60.02
2022-12-19T06:25:24.913Z,59.75
2022-12-19T06:28:33.617Z,60.36
2022-12-19T06:31:42.684Z,59.51
2022-12-19T06:35:03.739Z,60.05
2022-12-19T06:38:10.820Z,59.83
2022-12-19T06:41:33.956Z,59.15
2022-12-19T06:44:43.784Z,59.68
2022-12-19T06:47:52.188Z,59.15
2022-12-19T06:50:58.665Z,59.22
2022-12-19T06:54:04.363Z,59.25
2022-12-19T06:57:10.752Z,58.78
2022-12-19T07:00:17.843Z,58.25
2022-12-19T07:03:35.300Z,58.32
2022-12-19T07:06:47.336Z,58.18
2022-12-19T07:09:55.238Z,59.14
2022-12-19T07:13:00.728Z,59.09
2022-12-19T07:16:09.764Z,58.74
2022-12-19T07:19:18.631Z,58.97
2022-12-19T07:22:28.088Z,59.06
2022-12-19T07:25:34.401Z,58.10
2022-12-19T07:28:44.651Z,58.29
2022-12-19T07:31:50.349Z,59.36
2022-12-19T07:35:02.864Z,58.39
2022-12-19T07:38:10.635Z,58.64
2022-12-19T07:41:17.145Z,58.88
2022-12-19T07:44:22.557Z,58.15
2022-12-19T07:47:29.017Z,58.19
2022-12-19T07:50:37.693Z,58.03
2022-12-19T07:53:43.995Z,58.58
2022-12-19T07:56:49.405Z,58.22
2022-12-19T07:59:55.888Z,57.28
2022-12-19T08:03:02.502Z,57.89
2022-12-19T08:06:12.401Z,56.61
2022-12-19T08:09:18.012Z,57.18
2022-12-19T08:12:24.375Z,57.42
2022-12-19T08:15:29.886Z,57.87
2022-12-19T08:18:36.121Z,56.77
2022-12-19T08:21:44.294Z,56.95
2022-12-19T08:24:50.536Z,56.97
2022-12-19T08:27:55.879Z,57.00
2022-12-19T08:31:08.479Z,57.26
2022-12-19T08:34:14.184Z,57.47
2022-12-19T08:37:23.231Z,57.41
2022-12-19T08:40:28.622Z,57.14
2022-12-19T08:43:35.851Z,57.27
2022-12-19T08:46:46.507Z,56.90
2022-12-19T08:49:57.061Z,57.12
2022-12-19T08:53:05.243Z,56.70
2022-12-19T08:56:16.646Z,56.87
2022-12-19T08:59:31.060Z,56.81
2022-12-19T09:02:38.351Z,57.04
2022-12-19T09:06:03.859Z,56.92
2022-12-19T09:09:13.264Z,56.64
2022-12-19T09:12:19.547Z,56.96
2022-12-19T09:15:25.899Z,56.42
2022-12-19T09:18:31.712Z,56.34
2022-12-19T09:21:37.968Z,56.50
2022-12-19T09:24:46.216Z,56.16
2022-12-19T09:28:26.450Z,56.61
2022-12-19T09:31:21.828Z,56.50
2022-12-19T09:34:38.116Z,56.29
2022-12-19T09:37:44.768Z,55.68
2022-12-19T09:41:25.904Z,55.95
2022-12-19T09:45:05.843Z,55.51
2022-12-19T09:48:23.887Z,55.68
2022-12-19T09:51:41.625Z,55.37
2022-12-19T09:54:56.192Z,55.38
2022-12-19T09:58:15.669Z,54.94
2022-12-19T10:01:31.386Z,54.92
2022-12-19T10:04:41.094Z,54.78
2022-12-19T10:08:07.576Z,54.30
2022-12-19T10:12:39.947Z,54.16
2022-12-19T10:15:28.999Z,54.12
2022-12-19T10:18:56.472Z,54.53
2022-12-19T10:22:21.230Z,54.42
2022-12-19T10:25:40.182Z,53.87
2022-12-19T10:29:12.161Z,53.61
2022-12-19T10:32:36.891Z,54.37
2022-12-19T10:35:49.511Z,53.53
2022-12-19T10:39:11.565Z,53.36
2022-12-19T10:42:33.334Z,52.89
2022-12-19T10:45:48.604Z,53.57
2022-12-19T10:48:57.704Z,54.28
2022-12-19T10:52:08.116Z,53.24
2022-12-19T10:55:37.450Z,53.69
2022-12-19T10:58:47.202Z,52.92
2022-12-19T11:02:00.394Z,53.65
2022-12-19T11:05:28.370Z,53.14
2022-12-19T11:08:38.306Z,53.00
2022-12-19T11:13:22.610Z,52.98
2022-12-19T11:19:50.788Z,52.93
2022-12-19T11:27:39.580Z,53.67
2022-12-19T11:29:19.482Z,53.34
2022-12-19T11:30:39.207Z,53.78
2022-12-19T11:33:21.464Z,52.84
2022-12-19T11:36:42.617Z,53.31
2022-12-19T11:40:01.270Z,52.25
2022-12-19T11:43:43.771Z,52.85
2022-12-19T11:46:56.931Z,52.83
2022-12-19T11:50:17.857Z,52.20
2022-12-19T11:53:33.867Z,52.59
2022-12-19T11:56:43.278Z,52.78
2022-12-19T11:59:51.075Z,52.24
2022-12-19T12:03:55.945Z,53.41
2022-12-19T12:07:42.307Z,53.00
2022-12-19T12:15:56.913Z,53.42
2022-12-19T12:24:07.939Z,52.84
2022-12-19T12:31:06.028Z,52.96
2022-12-19T12:31:40.037Z,52.90
2022-12-19T12:31:55.328Z,53.46
2022-12-19T12:32:03.004Z,52.57
2022-12-19T12:35:33.129Z,52.75
2022-12-19T12:41:03.420Z,53.07
2022-12-19T12:44:14.175Z,52.57
2022-12-19T12:47:27.284Z,52.77
2022-12-19T12:50:37.334Z,53.10
2022-12-19T12:53:51.146Z,52.85
2022-12-19T12:56:58.410Z,52.72
2022-12-19T13:00:33.558Z,52.36
2022-12-19T13:03:45.107Z,52.75
2022-12-19T13:07:29.010Z,53.33
2022-12-19T13:10:35.676Z,53.72
2022-12-19T13:13:58.276Z,53.04
2022-12-19T13:17:05.369Z,53.36
2022-12-19T13:20:49.167Z,54.49
2022-12-19T13:23:54.658Z,54.59
2022-12-19T13:27:01.003Z,53.64
2022-12-19T13:30:21.825Z,54.22
2022-12-19T13:33:28.500Z,53.95
2022-12-19T13:39:50.480Z,53.98
2022-12-19T13:41:24.343Z,55.14
2022-12-19T13:44:28.333Z,54.01
2022-12-19T13:47:40.849Z,54.87
2022-12-19T13:50:50.876Z,54.81
2022-12-19T13:54:00.377Z,55.02
2022-12-19T13:57:09.589Z,54.54
2022-12-19T14:00:23.519Z,55.25
2022-12-19T14:03:40.913Z,54.64
2022-12-19T14:06:49.917Z,54.30
2022-12-19T14:11:32.891Z,55.63
2022-12-19T14:14:03.372Z,55.01
2022-12-19T14:17:12.131Z,54.21
2022-12-19T14:22:01.369Z,55.04
2022-12-19T14:23:51.148Z,54.84
2022-12-19T14:28:26.482Z,54.59
2022-12-19T14:30:38.629Z,54.90
2022-12-19T14:34:11.633Z,54.72
2022-12-19T14:37:54.315Z,54.63
2022-12-19T14:41:08.577Z,54.23
2022-12-19T14:52:51.103Z,54.49
2022-12-19T14:54:11.399Z,56.44
2022-12-19T14:54:22.845Z,56.32
2022-12-19T14:56:00.426Z,55.42
2022-12-19T14:58:55.261Z,56.65
2022-12-19T15:01:43.076Z,56.99
2022-12-19T15:04:55.299Z,57.59
2022-12-19T15:08:05.150Z,57.04
2022-12-19T15:11:49.960Z,56.84
2022-12-19T15:14:59.656Z,58.50
2022-12-19T15:18:29.870Z,58.35
2022-12-19T15:21:36.134Z,57.67
2022-12-19T15:24:42.218Z,57.27
2022-12-19T15:27:50.597Z,57.70
2022-12-19T15:31:04.440Z,58.48
2022-12-19T15:34:35.481Z,57.53
2022-12-19T15:37:44.047Z,57.81
2022-12-19T15:40:51.249Z,59.18
2022-12-19T15:44:05.586Z,59.05
2022-12-19T15:47:37.185Z,59.22
2022-12-19T15:50:47.585Z,59.28
2022-12-19T15:53:56.966Z,59.27
2022-12-19T15:57:16.537Z,59.55
2022-12-19T16:00:27.951Z,59.43
2022-12-19T16:03:33.872Z,58.75
2022-12-19T16:06:43.077Z,58.45
2022-12-19T16:09:49.478Z,59.11
2022-12-19T16:12:59.691Z,58.69
2022-12-19T16:16:15.295Z,59.13
2022-12-19T16:19:30.201Z,58.43
2022-12-19T16:22:39.042Z,57.97
2022-12-19T16:25:49.897Z,58.92
2022-12-19T16:28:55.331Z,59.56
2022-12-19T16:32:01.943Z,60.09
2022-12-19T16:35:23.995Z,59.41
2022-12-19T16:38:43.812Z,59.58
2022-12-19T16:41:50.125Z,59.36
2022-12-19T16:44:58.355Z,59.88
2022-12-19T16:48:03.986Z,60.51
2022-12-19T16:51:22.900Z,59.89
2022-12-19T16:54:31.142Z,60.34
2022-12-19T16:57:38.341Z,61.21
2022-12-19T17:00:45.064Z,60.97
2022-12-19T17:03:52.053Z,60.06
2022-12-19T17:06:57.933Z,60.80
2022-12-19T17:10:07.847Z,61.11
2022-12-19T17:13:17.749Z,59.57
2022-12-19T17:16:24.520Z,59.74
2022-12-19T17:19:39.172Z,60.06
2022-12-19T17:22:45.553Z,60.22
2022-12-19T17:25:55.163Z,60.18
2022-12-19T17:29:01.484Z,59.97
2022-12-19T17:32:09.131Z,60.67
2022-12-19T17:35:27.607Z,60.74
2022-12-19T17:38:33.940Z,59.68
2022-12-19T17:41:43.493Z,60.74
2022-12-19T17:44:48.926Z,60.50
2022-12-19T17:48:02.549Z,59.56
2022-12-19T17:51:08.922Z,60.02
2022-12-19T17:54:16.627Z,59.23
2022-12-19T17:57:24.867Z,60.39
2022-12-19T18:00:35.435Z,59.96
2022-12-19T18:03:41.184Z,59.31
2022-12-19T18:06:48.081Z,59.53
2022-12-19T18:09:53.896Z,59.45
2022-12-19T18:13:03.190Z,59.39
2022-12-19T18:16:16.963Z,59.78
2022-12-19T18:19:30.183Z,60.27
2022-12-19T18:22:36.284Z,60.45
2022-12-19T18:25:42.525Z,59.02
2022-12-19T18:28:51.152Z,58.75
2022-12-19T18:31:58.938Z,59.08
2022-12-19T18:35:04.492Z,59.62
2022-12-19T18:38:16.808Z,59.12
2022-12-19T18:41:24.075Z,59.35
2022-12-19T18:44:33.092Z,58.67
2022-12-19T18:47:38.665Z,58.85
2022-12-19T18:50:45.993Z,58.23
2022-12-19T18:53:53.072Z,59.21
2022-12-19T18:57:00.168Z,59.85
2022-12-19T19:00:10.840Z,58.13
2022-12-19T19:03:21.735Z,58.99
2022-12-19T19:06:37.289Z,58.96
2022-12-19T19:09:45.031Z,58.79
2022-12-19T19:13:43.869Z,59.49
2022-12-19T19:16:53.128Z,58.63
2022-12-19T19:19:59.015Z,58.87
2022-12-19T19:23:08.649Z,58.51
2022-12-19T19:26:14.547Z,58.15
2022-12-19T19:29:21.683Z,58.18
2022-12-19T19:32:30.700Z,58.98
2022-12-19T19:35:39.857Z,57.98
2022-12-19T19:38:52.482Z,58.28
2022-12-19T19:41:59.176Z,59.61
2022-12-19T19:45:04.568Z,58.88
2022-12-19T19:48:14.256Z,58.14
2022-12-19T19:51:20.235Z,59.30
2022-12-19T19:54:26.575Z,58.49
2022-12-19T19:57:31.945Z,58.92
2022-12-19T20:00:38.655Z,59.96
2022-12-19T20:03:48.628Z,59.44
2022-12-19T20:06:55.018Z,59.11
2022-12-19T20:10:00.535Z,59.87
2022-12-19T20:13:07.103Z,60.06
2022-12-19T20:16:16.807Z,60.19
2022-12-19T20:19:26.207Z,61.32
2022-12-19T20:22:32.928Z,61.01
2022-12-19T20:25:40.312Z,60.37
2022-12-19T20:28:49.310Z,60.07
2022-12-19T20:31:56.891Z,60.45
2022-12-19T20:35:10.657Z,61.45
2022-12-19T20:38:20.640Z,60.91
2022-12-19T20:41:26.229Z,61.34
2022-12-19T20:44:32.607Z,61.13
2022-12-19T20:47:37.968Z,60.63
2022-12-19T20:50:47.219Z,61.14
2022-12-19T20:53:57.831Z,61.02
2022-12-19T20:57:04.072Z,60.63
2022-12-19T21:00:11.863Z,60.86
2022-12-19T21:03:27.735Z,60.12
2022-12-19T21:06:38.251Z,60.47
2022-12-19T21:09:45.109Z,61.49
2022-12-19T21:12:50.584Z,59.52
2022-12-19T21:15:58.604Z,60.33
2022-12-19T21:19:04.151Z,60.15
2022-12-19T21:22:13.303Z,59.95
2022-12-19T21:25:18.852Z,60.11
2022-12-19T21:28:25.462Z,60.09
2022-12-19T21:31:33.371Z,59.57
2022-12-19T21:34:39.636Z,60.84
2022-12-19T21:37:51.467Z,59.97
2022-12-19T21:41:00.625Z,60.16
2022-12-19T21:44:06.474Z,59.78
2022-12-19T21:47:12.951Z,60.01
2022-12-19T21:50:19.532Z,59.83
2022-12-19T21:53:28.582Z,60.76
2022-12-19T21:56:37.408Z,60.79
2022-12-19T21:59:43.614Z,60.26
2022-12-19T22:03:12.507Z,60.02
2022-12-19T22:06:27.303Z,60.62
2022-12-19T22:09:37.103Z,60.23
2022-12-19T22:12:43.412Z,60.73
2022-12-19T22:15:48.903Z,61.13
2022-12-19T22:18:56.716Z,61.02
2022-12-19T22:22:03.037Z,61.08
2022-12-19T22:25:13.253Z,60.62
2022-12-19T22:28:18.653Z,61.39
2022-12-19T22:31:29.179Z,61.70
2022-12-19T22:34:34.929Z,60.96
2022-12-19T22:37:41.460Z,60.47
2022-12-19T22:40:50.395Z,60.64
2022-12-19T22:43:58.203Z,61.75
2022-12-19T22:47:04.179Z,61.92
2022-12-19T22:50:12.713Z,61.93
2022-12-19T22:53:18.892Z,61.06
2022-12-19T22:56:31.177Z,60.96
2022-12-19T22:59:36.784Z,61.62
2022-12-19T23:02:44.211Z,60.77
2022-12-19T23:05:52.074Z,61.73
2022-12-19T23:08:59.046Z,60.79
2022-12-19T23:12:07.574Z,60.48
2022-12-19T23:15:14.460Z,60.97
2022-12-19T23:18:20.108Z,61.25
2022-12-19T23:21:28.483Z,61.60
2022-12-19T23:24:33.935Z,61.43
2022-12-19T23:27:44.119Z,61.34
2022-12-19T23:30:49.549Z,61.29
2022-12-19T23:33:56.262Z,61.20
2022-12-19T23:37:10.794Z,60.94
2022-12-19T23:40:18.411Z,61.62
2022-12-19T23:43:26.757Z,61.27
2022-12-19T23:46:33.685Z,61.13
2022-12-19T23:49:39.065Z,60.90
2022-12-19T23:52:46.528Z,60.65
2022-12-19T23:55:53.018Z,61.78
2022-12-19T23:59:02.822Z,61.75
